sensor_id;sensor_type;location;lat;lon;timestamp;temperature;humidity
871;DHT22;422;51.280;7.236;2022-08-21T00:02:12;15.40;1.00
871;DHT22;422;51.280;7.236;2022-08-21T00:04:41;15.30;1.00
871;DHT22;422;51.280;7.236;2022-08-21T00:07:09;15.30;1.00
871;DHT22;422;51.280;7.236;2022-08-21T00:09:37;15.30;1.00
871;DHT22;422;51.280;7.236;2022-08-21T00:12:05;15.20;1.00
871;DHT22;422;51.280;7.236;2022-08-21T00:14:36;15.20;1.60
871;DHT22;422;51.280;7.236;2022-08-21T00:17:04;15.10;14.60
871;DHT22;422;51.280;7.236;2022-08-21T00:19:32;15.10;76.80
871;DHT22;422;51.280;7.236;2022-08-21T00:22:04;15.00;99.90
871;DHT22;422;51.280;7.236;2022-08-21T00:24:32;15.00;88.80
871;DHT22;422;51.280;7.236;2022-08-21T00:26:59;15.10;97.70
871;DHT22;422;51.280;7.236;2022-08-21T00:29:30;15.10;47.00
871;DHT22;422;51.280;7.236;2022-08-21T00:31:57;15.10;16.60
871;DHT22;422;51.280;7.236;2022-08-21T00:34:27;15.00;1.00
871;DHT22;422;51.280;7.236;2022-08-21T00:36:56;15.00;1.00
871;DHT22;422;51.280;7.236;2022-08-21T00:39:25;15.00;1.00
871;DHT22;422;51.280;7.236;2022-08-21T00:41:59;14.90;33.80
871;DHT22;422;51.280;7.236;2022-08-21T00:44:33;14.80;99.90
871;DHT22;422;51.280;7.236;2022-08-21T00:47:00;14.80;99.90
871;DHT22;422;51.280;7.236;2022-08-21T00:49:30;14.80;99.90
871;DHT22;422;51.280;7.236;2022-08-21T00:52:00;14.80;99.90
871;DHT22;422;51.280;7.236;2022-08-21T00:54:30;14.80;99.90
871;DHT22;422;51.280;7.236;2022-08-21T00:57:03;14.90;99.90
871;DHT22;422;51.280;7.236;2022-08-21T00:59:35;14.90;99.90
871;DHT22;422;51.280;7.236;2022-08-21T01:02:05;14.90;99.90
871;DHT22;422;51.280;7.236;2022-08-21T01:04:33;14.90;99.90
871;DHT22;422;51.280;7.236;2022-08-21T01:07:03;14.90;99.90
871;DHT22;422;51.280;7.236;2022-08-21T01:09:36;14.90;99.90
871;DHT22;422;51.280;7.236;2022-08-21T01:12:05;14.80;99.90
871;DHT22;422;51.280;7.236;2022-08-21T01:14:41;14.80;99.90
871;DHT22;422;51.280;7.236;2022-08-21T01:17:10;14.80;99.90
871;DHT22;422;51.280;7.236;2022-08-21T01:19:38;14.90;99.90
871;DHT22;422;51.280;7.236;2022-08-21T01:22:07;14.90;99.90
871;DHT22;422;51.280;7.236;2022-08-21T01:24:38;14.90;99.90
871;DHT22;422;51.280;7.236;2022-08-21T01:27:05;14.80;99.90
871;DHT22;422;51.280;7.236;2022-08-21T01:29:36;14.80;99.90
871;DHT22;422;51.280;7.236;2022-08-21T01:32:10;14.80;99.90
871;DHT22;422;51.280;7.236;2022-08-21T01:34:44;14.90;99.90
871;DHT22;422;51.280;7.236;2022-08-21T01:37:13;14.90;99.90
871;DHT22;422;51.280;7.236;2022-08-21T01:39:44;14.90;99.90
871;DHT22;422;51.280;7.236;2022-08-21T01:42:12;14.80;99.90
871;DHT22;422;51.280;7.236;2022-08-21T01:44:40;14.80;99.90
871;DHT22;422;51.280;7.236;2022-08-21T01:47:12;14.80;99.90
871;DHT22;422;51.280;7.236;2022-08-21T01:49:40;14.80;99.90
871;DHT22;422;51.280;7.236;2022-08-21T01:52:08;14.70;99.90
871;DHT22;422;51.280;7.236;2022-08-21T01:54:42;14.70;99.90
871;DHT22;422;51.280;7.236;2022-08-21T01:57:10;14.70;99.90
871;DHT22;422;51.280;7.236;2022-08-21T01:59:41;14.80;99.90
871;DHT22;422;51.280;7.236;2022-08-21T02:02:08;14.70;99.90
871;DHT22;422;51.280;7.236;2022-08-21T02:04:35;14.70;99.90
871;DHT22;422;51.280;7.236;2022-08-21T02:07:10;14.60;99.90
871;DHT22;422;51.280;7.236;2022-08-21T02:09:38;14.50;99.90
871;DHT22;422;51.280;7.236;2022-08-21T02:12:09;14.50;99.90
871;DHT22;422;51.280;7.236;2022-08-21T02:14:38;14.50;99.90
871;DHT22;422;51.280;7.236;2022-08-21T02:17:06;14.50;99.90
871;DHT22;422;51.280;7.236;2022-08-21T02:19:33;14.40;99.90
871;DHT22;422;51.280;7.236;2022-08-21T02:22:00;14.40;99.90
871;DHT22;422;51.280;7.236;2022-08-21T02:24:27;14.30;99.90
871;DHT22;422;51.280;7.236;2022-08-21T02:26:54;14.30;99.90
871;DHT22;422;51.280;7.236;2022-08-21T02:29:25;14.30;99.90
871;DHT22;422;51.280;7.236;2022-08-21T02:31:59;14.20;99.90
871;DHT22;422;51.280;7.236;2022-08-21T02:34:29;14.20;99.90
871;DHT22;422;51.280;7.236;2022-08-21T02:36:59;14.10;99.90
871;DHT22;422;51.280;7.236;2022-08-21T02:39:27;14.10;99.90
871;DHT22;422;51.280;7.236;2022-08-21T02:41:56;14.10;99.90
871;DHT22;422;51.280;7.236;2022-08-21T02:44:28;14.10;99.90
871;DHT22;422;51.280;7.236;2022-08-21T02:46:58;14.00;99.90
871;DHT22;422;51.280;7.236;2022-08-21T02:49:25;14.00;99.90
871;DHT22;422;51.280;7.236;2022-08-21T02:51:52;13.90;99.90
871;DHT22;422;51.280;7.236;2022-08-21T02:54:20;13.90;99.90
871;DHT22;422;51.280;7.236;2022-08-21T02:56:47;13.80;1.00
871;DHT22;422;51.280;7.236;2022-08-21T02:59:14;13.70;1.00
871;DHT22;422;51.280;7.236;2022-08-21T03:01:46;13.70;1.00
871;DHT22;422;51.280;7.236;2022-08-21T03:04:14;13.80;34.80
871;DHT22;422;51.280;7.236;2022-08-21T03:06:42;13.80;99.90
871;DHT22;422;51.280;7.236;2022-08-21T03:09:12;13.80;1.00
871;DHT22;422;51.280;7.236;2022-08-21T03:11:39;13.70;1.00
871;DHT22;422;51.280;7.236;2022-08-21T03:14:06;13.80;1.00
871;DHT22;422;51.280;7.236;2022-08-21T03:16:34;13.80;1.00
871;DHT22;422;51.280;7.236;2022-08-21T03:19:03;13.90;1.00
871;DHT22;422;51.280;7.236;2022-08-21T03:21:30;13.90;1.00
871;DHT22;422;51.280;7.236;2022-08-21T03:23:57;13.90;1.00
871;DHT22;422;51.280;7.236;2022-08-21T03:26:25;13.90;4.30
871;DHT22;422;51.280;7.236;2022-08-21T03:28:52;13.90;99.90
871;DHT22;422;51.280;7.236;2022-08-21T03:31:20;13.90;99.90
871;DHT22;422;51.280;7.236;2022-08-21T03:33:47;14.00;99.90
871;DHT22;422;51.280;7.236;2022-08-21T03:36:22;14.00;99.90
871;DHT22;422;51.280;7.236;2022-08-21T03:38:50;14.00;1.00
871;DHT22;422;51.280;7.236;2022-08-21T03:41:19;14.00;1.00
871;DHT22;422;51.280;7.236;2022-08-21T03:43:46;13.90;99.90
871;DHT22;422;51.280;7.236;2022-08-21T03:46:13;13.90;99.90
871;DHT22;422;51.280;7.236;2022-08-21T03:48:41;13.80;99.90
871;DHT22;422;51.280;7.236;2022-08-21T03:51:08;13.70;99.90
871;DHT22;422;51.280;7.236;2022-08-21T03:53:37;13.70;99.90
871;DHT22;422;51.280;7.236;2022-08-21T03:56:05;13.70;99.90
871;DHT22;422;51.280;7.236;2022-08-21T03:58:33;13.60;99.90
871;DHT22;422;51.280;7.236;2022-08-21T04:01:01;13.60;1.00
871;DHT22;422;51.280;7.236;2022-08-21T04:03:30;13.60;1.00
871;DHT22;422;51.280;7.236;2022-08-21T04:05:57;13.50;1.00
871;DHT22;422;51.280;7.236;2022-08-21T04:08:25;13.50;1.00
871;DHT22;422;51.280;7.236;2022-08-21T04:10:55;13.50;1.00
871;DHT22;422;51.280;7.236;2022-08-21T04:13:24;13.50;1.00
871;DHT22;422;51.280;7.236;2022-08-21T04:15:52;13.50;1.00
871;DHT22;422;51.280;7.236;2022-08-21T04:18:24;13.40;1.00
871;DHT22;422;51.280;7.236;2022-08-21T04:20:54;13.50;1.00
871;DHT22;422;51.280;7.236;2022-08-21T04:23:23;13.40;1.00
871;DHT22;422;51.280;7.236;2022-08-21T04:25:50;13.40;1.00
871;DHT22;422;51.280;7.236;2022-08-21T04:28:19;13.30;1.00
871;DHT22;422;51.280;7.236;2022-08-21T04:30:47;13.30;1.00
871;DHT22;422;51.280;7.236;2022-08-21T04:33:14;13.20;1.00
871;DHT22;422;51.280;7.236;2022-08-21T04:35:44;13.20;1.00
871;DHT22;422;51.280;7.236;2022-08-21T04:38:14;13.20;1.00
871;DHT22;422;51.280;7.236;2022-08-21T04:40:42;13.20;1.00
871;DHT22;422;51.280;7.236;2022-08-21T04:43:13;13.20;1.00
871;DHT22;422;51.280;7.236;2022-08-21T04:45:44;13.20;99.90
871;DHT22;422;51.280;7.236;2022-08-21T04:48:14;13.20;99.90
871;DHT22;422;51.280;7.236;2022-08-21T04:50:45;13.20;99.90
871;DHT22;422;51.280;7.236;2022-08-21T04:53:19;13.20;99.90
871;DHT22;422;51.280;7.236;2022-08-21T04:55:48;13.20;99.90
871;DHT22;422;51.280;7.236;2022-08-21T04:58:17;13.20;1.00
871;DHT22;422;51.280;7.236;2022-08-21T05:00:48;13.20;1.00
871;DHT22;422;51.280;7.236;2022-08-21T05:03:17;13.30;1.00
871;DHT22;422;51.280;7.236;2022-08-21T05:05:44;13.30;1.00
871;DHT22;422;51.280;7.236;2022-08-21T05:08:17;13.30;1.00
871;DHT22;422;51.280;7.236;2022-08-21T05:10:49;13.40;1.00
871;DHT22;422;51.280;7.236;2022-08-21T05:13:16;13.40;1.00
871;DHT22;422;51.280;7.236;2022-08-21T05:15:44;13.40;1.00
871;DHT22;422;51.280;7.236;2022-08-21T05:18:13;13.50;99.90
871;DHT22;422;51.280;7.236;2022-08-21T05:20:40;13.50;99.90
871;DHT22;422;51.280;7.236;2022-08-21T05:23:10;13.60;99.90
871;DHT22;422;51.280;7.236;2022-08-21T05:25:39;13.60;99.90
871;DHT22;422;51.280;7.236;2022-08-21T05:28:08;13.60;99.90
871;DHT22;422;51.280;7.236;2022-08-21T05:30:37;13.60;1.00
871;DHT22;422;51.280;7.236;2022-08-21T05:33:05;13.50;1.00
871;DHT22;422;51.280;7.236;2022-08-21T05:35:37;13.50;99.90
871;DHT22;422;51.280;7.236;2022-08-21T05:38:07;13.60;99.90
871;DHT22;422;51.280;7.236;2022-08-21T05:40:35;13.60;1.00
871;DHT22;422;51.280;7.236;2022-08-21T05:43:03;13.60;1.00
871;DHT22;422;51.280;7.236;2022-08-21T05:45:32;13.80;1.00
871;DHT22;422;51.280;7.236;2022-08-21T05:48:06;13.90;1.00
871;DHT22;422;51.280;7.236;2022-08-21T05:50:45;14.10;99.90
871;DHT22;422;51.280;7.236;2022-08-21T05:53:13;14.20;99.90
871;DHT22;422;51.280;7.236;2022-08-21T05:55:43;14.40;99.90
871;DHT22;422;51.280;7.236;2022-08-21T05:58:13;14.50;99.90
871;DHT22;422;51.280;7.236;2022-08-21T06:00:40;14.60;90.20
871;DHT22;422;51.280;7.236;2022-08-21T06:03:11;14.70;1.00
871;DHT22;422;51.280;7.236;2022-08-21T06:05:46;14.80;1.00
871;DHT22;422;51.280;7.236;2022-08-21T06:08:19;14.90;1.00
871;DHT22;422;51.280;7.236;2022-08-21T06:10:48;15.10;1.00
871;DHT22;422;51.280;7.236;2022-08-21T06:13:21;15.30;1.00
871;DHT22;422;51.280;7.236;2022-08-21T06:15:49;15.50;99.90
871;DHT22;422;51.280;7.236;2022-08-21T06:18:18;15.60;99.90
871;DHT22;422;51.280;7.236;2022-08-21T06:20:46;15.80;99.90
871;DHT22;422;51.280;7.236;2022-08-21T06:23:14;16.00;99.90
871;DHT22;422;51.280;7.236;2022-08-21T06:25:48;16.30;22.80
871;DHT22;422;51.280;7.236;2022-08-21T06:28:16;16.50;1.00
871;DHT22;422;51.280;7.236;2022-08-21T06:30:46;16.80;1.00
871;DHT22;422;51.280;7.236;2022-08-21T06:33:13;17.10;1.00
871;DHT22;422;51.280;7.236;2022-08-21T06:35:40;17.30;1.00
871;DHT22;422;51.280;7.236;2022-08-21T06:38:09;17.70;1.00
871;DHT22;422;51.280;7.236;2022-08-21T06:40:36;18.10;1.00
871;DHT22;422;51.280;7.236;2022-08-21T06:43:08;18.20;1.00
871;DHT22;422;51.280;7.236;2022-08-21T06:45:36;18.40;1.00
871;DHT22;422;51.280;7.236;2022-08-21T06:48:04;18.70;99.90
871;DHT22;422;51.280;7.236;2022-08-21T06:50:32;18.80;99.90
871;DHT22;422;51.280;7.236;2022-08-21T06:53:01;19.00;99.90
871;DHT22;422;51.280;7.236;2022-08-21T06:55:31;19.10;99.90
871;DHT22;422;51.280;7.236;2022-08-21T06:57:58;19.30;99.90
871;DHT22;422;51.280;7.236;2022-08-21T07:00:27;19.80;99.90
871;DHT22;422;51.280;7.236;2022-08-21T07:02:56;20.00;99.90
871;DHT22;422;51.280;7.236;2022-08-21T07:05:25;20.20;99.90
871;DHT22;422;51.280;7.236;2022-08-21T07:07:55;20.50;99.90
871;DHT22;422;51.280;7.236;2022-08-21T07:10:26;20.70;99.90
871;DHT22;422;51.280;7.236;2022-08-21T07:12:58;21.00;99.90
871;DHT22;422;51.280;7.236;2022-08-21T07:15:30;21.20;99.90
871;DHT22;422;51.280;7.236;2022-08-21T07:17:58;21.50;99.90
871;DHT22;422;51.280;7.236;2022-08-21T07:20:26;21.70;99.90
871;DHT22;422;51.280;7.236;2022-08-21T07:23:02;21.70;99.90
871;DHT22;422;51.280;7.236;2022-08-21T07:25:32;21.70;99.90
871;DHT22;422;51.280;7.236;2022-08-21T07:28:02;21.80;99.90
871;DHT22;422;51.280;7.236;2022-08-21T07:30:30;22.10;99.90
871;DHT22;422;51.280;7.236;2022-08-21T07:32:57;22.30;99.90
871;DHT22;422;51.280;7.236;2022-08-21T07:35:24;22.50;99.90
871;DHT22;422;51.280;7.236;2022-08-21T07:37:53;22.50;99.90
871;DHT22;422;51.280;7.236;2022-08-21T07:40:20;22.60;99.90
871;DHT22;422;51.280;7.236;2022-08-21T07:42:48;22.80;99.90
871;DHT22;422;51.280;7.236;2022-08-21T07:45:26;23.00;99.90
871;DHT22;422;51.280;7.236;2022-08-21T07:47:54;22.80;99.90
871;DHT22;422;51.280;7.236;2022-08-21T07:50:21;23.40;99.90
871;DHT22;422;51.280;7.236;2022-08-21T07:52:52;23.80;99.90
871;DHT22;422;51.280;7.236;2022-08-21T07:55:20;24.10;99.90
871;DHT22;422;51.280;7.236;2022-08-21T07:57:48;24.30;99.90
871;DHT22;422;51.280;7.236;2022-08-21T08:00:18;24.30;99.90
871;DHT22;422;51.280;7.236;2022-08-21T08:02:54;23.80;99.90
871;DHT22;422;51.280;7.236;2022-08-21T08:05:23;23.80;99.90
871;DHT22;422;51.280;7.236;2022-08-21T08:07:54;24.10;99.90
871;DHT22;422;51.280;7.236;2022-08-21T08:10:25;24.00;99.90
871;DHT22;422;51.280;7.236;2022-08-21T08:12:53;23.60;99.90
871;DHT22;422;51.280;7.236;2022-08-21T08:15:24;23.60;99.90
871;DHT22;422;51.280;7.236;2022-08-21T08:18:01;23.90;99.90
871;DHT22;422;51.280;7.236;2022-08-21T08:20:28;24.00;99.90
871;DHT22;422;51.280;7.236;2022-08-21T08:22:56;24.00;99.90
871;DHT22;422;51.280;7.236;2022-08-21T08:25:25;24.00;99.90
871;DHT22;422;51.280;7.236;2022-08-21T08:27:53;24.30;99.90
871;DHT22;422;51.280;7.236;2022-08-21T08:30:21;24.20;99.90
871;DHT22;422;51.280;7.236;2022-08-21T08:32:52;24.60;99.90
871;DHT22;422;51.280;7.236;2022-08-21T08:35:23;25.00;99.90
871;DHT22;422;51.280;7.236;2022-08-21T08:37:51;25.20;99.90
871;DHT22;422;51.280;7.236;2022-08-21T08:40:21;24.70;99.90
871;DHT22;422;51.280;7.236;2022-08-21T08:42:50;24.70;99.90
871;DHT22;422;51.280;7.236;2022-08-21T08:45:20;24.90;99.90
871;DHT22;422;51.280;7.236;2022-08-21T08:47:56;25.10;99.90
871;DHT22;422;51.280;7.236;2022-08-21T08:50:32;25.20;99.90
871;DHT22;422;51.280;7.236;2022-08-21T08:53:05;25.60;99.90
871;DHT22;422;51.280;7.236;2022-08-21T08:55:39;25.60;99.90
871;DHT22;422;51.280;7.236;2022-08-21T08:58:07;25.60;99.90
871;DHT22;422;51.280;7.236;2022-08-21T09:00:38;25.40;99.90
871;DHT22;422;51.280;7.236;2022-08-21T09:03:07;25.50;99.90
871;DHT22;422;51.280;7.236;2022-08-21T09:05:44;25.80;99.90
871;DHT22;422;51.280;7.236;2022-08-21T09:11:26;26.00;99.90
871;DHT22;422;51.280;7.236;2022-08-21T09:14:05;25.80;99.90
871;DHT22;422;51.280;7.236;2022-08-21T09:16:45;26.20;99.90
871;DHT22;422;51.280;7.236;2022-08-21T09:19:27;26.00;99.90
871;DHT22;422;51.280;7.236;2022-08-21T09:22:03;25.70;99.90
871;DHT22;422;51.280;7.236;2022-08-21T09:24:47;26.10;99.90
871;DHT22;422;51.280;7.236;2022-08-21T09:27:21;26.50;99.90
871;DHT22;422;51.280;7.236;2022-08-21T09:29:51;26.70;99.90
871;DHT22;422;51.280;7.236;2022-08-21T09:32:25;26.70;99.90
871;DHT22;422;51.280;7.236;2022-08-21T09:34:59;27.00;99.90
871;DHT22;422;51.280;7.236;2022-08-21T09:37:34;26.80;99.90
871;DHT22;422;51.280;7.236;2022-08-21T09:40:13;26.80;99.90
871;DHT22;422;51.280;7.236;2022-08-21T09:42:42;26.70;99.90
871;DHT22;422;51.280;7.236;2022-08-21T09:45:20;26.30;99.90
871;DHT22;422;51.280;7.236;2022-08-21T09:47:49;26.30;99.90
871;DHT22;422;51.280;7.236;2022-08-21T09:50:21;26.20;99.90
871;DHT22;422;51.280;7.236;2022-08-21T09:52:55;25.70;99.90
871;DHT22;422;51.280;7.236;2022-08-21T09:55:32;26.10;99.90
871;DHT22;422;51.280;7.236;2022-08-21T09:58:18;26.80;99.90
871;DHT22;422;51.280;7.236;2022-08-21T10:00:56;27.20;99.90
871;DHT22;422;51.280;7.236;2022-08-21T10:03:23;27.40;99.90
871;DHT22;422;51.280;7.236;2022-08-21T10:05:57;27.70;99.90
871;DHT22;422;51.280;7.236;2022-08-21T10:08:28;27.80;99.90
871;DHT22;422;51.280;7.236;2022-08-21T10:11:03;27.60;99.90
871;DHT22;422;51.280;7.236;2022-08-21T10:13:44;27.90;99.90
871;DHT22;422;51.280;7.236;2022-08-21T10:16:20;27.60;99.90
871;DHT22;422;51.280;7.236;2022-08-21T10:19:00;27.70;99.90
871;DHT22;422;51.280;7.236;2022-08-21T10:21:32;27.30;99.90
871;DHT22;422;51.280;7.236;2022-08-21T10:24:13;27.80;99.90
871;DHT22;422;51.280;7.236;2022-08-21T10:26:51;27.70;99.90
871;DHT22;422;51.280;7.236;2022-08-21T10:29:37;28.40;99.90
871;DHT22;422;51.280;7.236;2022-08-21T10:32:24;28.40;99.90
871;DHT22;422;51.280;7.236;2022-08-21T10:35:00;28.10;99.90
871;DHT22;422;51.280;7.236;2022-08-21T10:37:40;27.80;99.90
871;DHT22;422;51.280;7.236;2022-08-21T10:40:19;27.80;99.90
871;DHT22;422;51.280;7.236;2022-08-21T10:43:01;28.20;99.90
871;DHT22;422;51.280;7.236;2022-08-21T10:45:43;27.90;99.90
871;DHT22;422;51.280;7.236;2022-08-21T10:48:21;28.10;99.90
871;DHT22;422;51.280;7.236;2022-08-21T10:50:53;28.30;99.90
871;DHT22;422;51.280;7.236;2022-08-21T10:53:41;28.30;99.90
871;DHT22;422;51.280;7.236;2022-08-21T10:56:18;28.20;99.90
871;DHT22;422;51.280;7.236;2022-08-21T10:59:08;27.70;99.90
871;DHT22;422;51.280;7.236;2022-08-21T11:01:46;28.40;99.90
871;DHT22;422;51.280;7.236;2022-08-21T11:04:20;29.10;99.90
871;DHT22;422;51.280;7.236;2022-08-21T11:07:05;29.00;99.90
871;DHT22;422;51.280;7.236;2022-08-21T11:09:33;29.40;99.90
871;DHT22;422;51.280;7.236;2022-08-21T11:12:20;28.70;99.90
871;DHT22;422;51.280;7.236;2022-08-21T11:14:59;28.50;99.90
871;DHT22;422;51.280;7.236;2022-08-21T11:17:32;28.10;99.90
871;DHT22;422;51.280;7.236;2022-08-21T11:20:10;27.90;99.90
871;DHT22;422;51.280;7.236;2022-08-21T11:22:47;28.20;99.90
871;DHT22;422;51.280;7.236;2022-08-21T11:25:21;28.60;99.90
871;DHT22;422;51.280;7.236;2022-08-21T11:27:54;28.80;99.90
871;DHT22;422;51.280;7.236;2022-08-21T11:30:25;28.90;99.90
871;DHT22;422;51.280;7.236;2022-08-21T11:33:01;28.60;99.90
871;DHT22;422;51.280;7.236;2022-08-21T11:35:39;28.70;99.90
871;DHT22;422;51.280;7.236;2022-08-21T11:38:22;28.00;99.90
871;DHT22;422;51.280;7.236;2022-08-21T11:41:22;28.00;99.90
871;DHT22;422;51.280;7.236;2022-08-21T11:44:03;27.90;99.90
871;DHT22;422;51.280;7.236;2022-08-21T11:46:39;27.70;99.90
871;DHT22;422;51.280;7.236;2022-08-21T11:49:21;27.20;99.90
871;DHT22;422;51.280;7.236;2022-08-21T11:51:53;27.00;99.90
871;DHT22;422;51.280;7.236;2022-08-21T11:54:27;26.70;99.90
871;DHT22;422;51.280;7.236;2022-08-21T11:57:05;27.10;99.90
871;DHT22;422;51.280;7.236;2022-08-21T11:59:39;27.40;99.90
871;DHT22;422;51.280;7.236;2022-08-21T12:02:12;27.70;99.90
871;DHT22;422;51.280;7.236;2022-08-21T12:04:49;28.40;99.90
871;DHT22;422;51.280;7.236;2022-08-21T12:07:32;29.00;99.90
871;DHT22;422;51.280;7.236;2022-08-21T12:10:03;28.90;99.90
871;DHT22;422;51.280;7.236;2022-08-21T12:12:33;28.90;99.90
871;DHT22;422;51.280;7.236;2022-08-21T12:15:26;29.30;99.90
871;DHT22;422;51.280;7.236;2022-08-21T12:17:58;29.90;99.90
871;DHT22;422;51.280;7.236;2022-08-21T12:20:40;30.10;99.90
871;DHT22;422;51.280;7.236;2022-08-21T12:23:29;29.20;99.90
871;DHT22;422;51.280;7.236;2022-08-21T12:26:15;28.70;99.90
871;DHT22;422;51.280;7.236;2022-08-21T12:28:46;29.30;99.90
871;DHT22;422;51.280;7.236;2022-08-21T12:31:24;29.50;99.90
871;DHT22;422;51.280;7.236;2022-08-21T12:33:59;29.50;99.90
871;DHT22;422;51.280;7.236;2022-08-21T12:36:46;29.70;99.90
871;DHT22;422;51.280;7.236;2022-08-21T12:39:17;30.20;99.90
871;DHT22;422;51.280;7.236;2022-08-21T12:41:50;30.30;99.90
871;DHT22;422;51.280;7.236;2022-08-21T12:44:26;30.90;99.90
871;DHT22;422;51.280;7.236;2022-08-21T12:47:03;30.30;99.90
871;DHT22;422;51.280;7.236;2022-08-21T12:49:36;30.40;99.90
871;DHT22;422;51.280;7.236;2022-08-21T12:52:11;30.50;99.90
871;DHT22;422;51.280;7.236;2022-08-21T12:54:41;30.30;99.90
871;DHT22;422;51.280;7.236;2022-08-21T12:57:18;30.60;99.90
871;DHT22;422;51.280;7.236;2022-08-21T12:59:46;30.30;99.90
871;DHT22;422;51.280;7.236;2022-08-21T13:02:28;30.70;99.90
871;DHT22;422;51.280;7.236;2022-08-21T13:05:08;30.20;99.90
871;DHT22;422;51.280;7.236;2022-08-21T13:07:47;29.60;99.90
871;DHT22;422;51.280;7.236;2022-08-21T13:10:19;29.50;99.90
871;DHT22;422;51.280;7.236;2022-08-21T13:12:47;29.90;99.90
871;DHT22;422;51.280;7.236;2022-08-21T13:15:22;29.80;99.90
871;DHT22;422;51.280;7.236;2022-08-21T13:17:55;29.60;99.90
871;DHT22;422;51.280;7.236;2022-08-21T13:20:29;29.60;99.90
871;DHT22;422;51.280;7.236;2022-08-21T13:23:00;30.20;99.90
871;DHT22;422;51.280;7.236;2022-08-21T13:25:33;30.60;99.90
871;DHT22;422;51.280;7.236;2022-08-21T13:28:05;29.90;99.90
871;DHT22;422;51.280;7.236;2022-08-21T13:30:37;29.30;99.90
871;DHT22;422;51.280;7.236;2022-08-21T13:33:12;29.10;99.90
871;DHT22;422;51.280;7.236;2022-08-21T13:35:48;28.30;99.90
871;DHT22;422;51.280;7.236;2022-08-21T13:38:19;28.20;99.90
871;DHT22;422;51.280;7.236;2022-08-21T13:40:50;28.10;99.90
871;DHT22;422;51.280;7.236;2022-08-21T13:43:28;28.20;99.90
871;DHT22;422;51.280;7.236;2022-08-21T13:45:57;28.60;99.90
871;DHT22;422;51.280;7.236;2022-08-21T13:48:29;29.10;99.90
871;DHT22;422;51.280;7.236;2022-08-21T13:51:00;29.60;99.90
871;DHT22;422;51.280;7.236;2022-08-21T13:53:30;29.40;99.90
871;DHT22;422;51.280;7.236;2022-08-21T13:56:02;29.40;99.90
871;DHT22;422;51.280;7.236;2022-08-21T13:58:41;29.60;99.90
871;DHT22;422;51.280;7.236;2022-08-21T14:01:19;29.70;99.90
871;DHT22;422;51.280;7.236;2022-08-21T14:03:52;28.90;99.90
871;DHT22;422;51.280;7.236;2022-08-21T14:06:22;28.70;99.90
871;DHT22;422;51.280;7.236;2022-08-21T14:08:55;28.40;99.90
871;DHT22;422;51.280;7.236;2022-08-21T14:11:25;29.00;99.90
871;DHT22;422;51.280;7.236;2022-08-21T14:13:58;29.60;99.90
871;DHT22;422;51.280;7.236;2022-08-21T14:16:29;30.20;99.90
871;DHT22;422;51.280;7.236;2022-08-21T14:19:21;30.30;99.90
871;DHT22;422;51.280;7.236;2022-08-21T14:21:49;30.20;99.90
871;DHT22;422;51.280;7.236;2022-08-21T14:24:31;30.10;99.90
871;DHT22;422;51.280;7.236;2022-08-21T14:27:03;30.10;99.90
871;DHT22;422;51.280;7.236;2022-08-21T14:29:34;29.70;99.90
871;DHT22;422;51.280;7.236;2022-08-21T14:32:25;29.60;99.90
871;DHT22;422;51.280;7.236;2022-08-21T14:34:56;29.90;99.90
871;DHT22;422;51.280;7.236;2022-08-21T14:37:25;30.00;99.90
871;DHT22;422;51.280;7.236;2022-08-21T14:39:53;30.50;99.90
871;DHT22;422;51.280;7.236;2022-08-21T14:42:23;30.80;99.90
871;DHT22;422;51.280;7.236;2022-08-21T14:45:00;30.20;99.90
871;DHT22;422;51.280;7.236;2022-08-21T14:47:27;29.80;99.90
871;DHT22;422;51.280;7.236;2022-08-21T14:49:57;29.60;99.90
871;DHT22;422;51.280;7.236;2022-08-21T14:52:24;29.30;99.90
871;DHT22;422;51.280;7.236;2022-08-21T14:54:52;28.60;99.90
871;DHT22;422;51.280;7.236;2022-08-21T14:57:20;28.90;99.90
871;DHT22;422;51.280;7.236;2022-08-21T14:59:50;29.10;99.90
871;DHT22;422;51.280;7.236;2022-08-21T15:02:19;29.70;99.90
871;DHT22;422;51.280;7.236;2022-08-21T15:04:47;29.60;99.90
871;DHT22;422;51.280;7.236;2022-08-21T15:07:18;29.70;99.90
871;DHT22;422;51.280;7.236;2022-08-21T15:09:53;30.00;99.90
871;DHT22;422;51.280;7.236;2022-08-21T15:12:20;28.90;99.90
871;DHT22;422;51.280;7.236;2022-08-21T15:14:50;28.60;99.90
871;DHT22;422;51.280;7.236;2022-08-21T15:17:18;28.60;99.90
871;DHT22;422;51.280;7.236;2022-08-21T15:19:46;28.90;99.90
871;DHT22;422;51.280;7.236;2022-08-21T15:22:15;29.40;99.90
871;DHT22;422;51.280;7.236;2022-08-21T15:24:43;29.70;99.90
871;DHT22;422;51.280;7.236;2022-08-21T15:27:12;29.80;99.90
871;DHT22;422;51.280;7.236;2022-08-21T15:29:44;30.10;99.90
871;DHT22;422;51.280;7.236;2022-08-21T15:32:25;30.20;99.90
871;DHT22;422;51.280;7.236;2022-08-21T15:34:57;29.70;99.90
871;DHT22;422;51.280;7.236;2022-08-21T15:37:26;29.60;99.90
871;DHT22;422;51.280;7.236;2022-08-21T15:39:53;29.10;99.90
871;DHT22;422;51.280;7.236;2022-08-21T15:42:25;28.70;99.90
871;DHT22;422;51.280;7.236;2022-08-21T15:45:01;28.90;99.90
871;DHT22;422;51.280;7.236;2022-08-21T15:47:31;29.00;99.90
871;DHT22;422;51.280;7.236;2022-08-21T15:50:03;28.60;99.90
871;DHT22;422;51.280;7.236;2022-08-21T15:52:33;28.60;99.90
871;DHT22;422;51.280;7.236;2022-08-21T15:55:08;28.60;99.90
871;DHT22;422;51.280;7.236;2022-08-21T15:57:37;28.60;99.90
871;DHT22;422;51.280;7.236;2022-08-21T16:00:13;28.00;99.90
871;DHT22;422;51.280;7.236;2022-08-21T16:02:45;27.50;99.90
871;DHT22;422;51.280;7.236;2022-08-21T16:05:13;26.70;99.90
871;DHT22;422;51.280;7.236;2022-08-21T16:07:44;26.60;99.90
871;DHT22;422;51.280;7.236;2022-08-21T16:10:22;27.00;99.90
871;DHT22;422;51.280;7.236;2022-08-21T16:12:54;27.20;99.90
871;DHT22;422;51.280;7.236;2022-08-21T16:15:22;27.20;99.90
871;DHT22;422;51.280;7.236;2022-08-21T16:17:57;26.90;99.90
871;DHT22;422;51.280;7.236;2022-08-21T16:20:27;25.90;99.90
871;DHT22;422;51.280;7.236;2022-08-21T16:22:59;25.70;99.90
871;DHT22;422;51.280;7.236;2022-08-21T16:25:27;26.00;99.90
871;DHT22;422;51.280;7.236;2022-08-21T16:28:02;25.90;99.90
871;DHT22;422;51.280;7.236;2022-08-21T16:30:30;26.10;99.90
871;DHT22;422;51.280;7.236;2022-08-21T16:32:59;26.30;99.90
871;DHT22;422;51.280;7.236;2022-08-21T16:35:27;26.40;99.90
871;DHT22;422;51.280;7.236;2022-08-21T16:37:58;26.30;99.90
871;DHT22;422;51.280;7.236;2022-08-21T16:40:25;26.60;99.90
871;DHT22;422;51.280;7.236;2022-08-21T16:42:53;26.40;99.90
871;DHT22;422;51.280;7.236;2022-08-21T16:45:24;26.70;99.90
871;DHT22;422;51.280;7.236;2022-08-21T16:47:51;26.60;99.90
871;DHT22;422;51.280;7.236;2022-08-21T16:50:22;26.40;99.90
871;DHT22;422;51.280;7.236;2022-08-21T16:52:52;26.30;99.90
871;DHT22;422;51.280;7.236;2022-08-21T16:55:21;26.00;99.90
871;DHT22;422;51.280;7.236;2022-08-21T16:57:48;26.00;99.90
871;DHT22;422;51.280;7.236;2022-08-21T17:00:20;25.90;99.90
871;DHT22;422;51.280;7.236;2022-08-21T17:02:49;25.90;99.90
871;DHT22;422;51.280;7.236;2022-08-21T17:05:22;26.10;99.90
871;DHT22;422;51.280;7.236;2022-08-21T17:07:52;25.90;99.90
871;DHT22;422;51.280;7.236;2022-08-21T17:10:21;25.40;99.90